Safe, Missouri
Current Conditions -  °F | °C
As of 1:53 PM on Monday 24 Nov 2014 (Local Time) from KVIH Reporting Station
Overcast Overcast  
Wind Chill: 33°   Ceiling: 4000
Heat Index: 41°   Visibility: 10mi
Dew Point: 26°   Wind: 15mph
Humidity: 55%   Direction: 270°W
Pressure: 29.75"   Gusts: 24mph
Location:  37.9936°N, 91.5964°W
Report Text: KVIH 241953Z AUTO 27013G21KT 10SM OVC040 05/M03 A2975 RMK AO2 SLP080 T00501033
Loading
Personal Weather Stations






























Interactive Weather Map New forecast layout! Learn more

10-Day Weather Forecast

Advertisements
Track Severe Weather on mobile